createdAt,value
2023-03-18T00:01:54.060Z,5.88
2023-03-18T00:04:22.120Z,5.93
2023-03-18T00:06:50.395Z,5.94
2023-03-18T00:09:19.700Z,5.93
2023-03-18T00:11:49.159Z,5.89
2023-03-18T00:14:17.161Z,5.87
2023-03-18T00:16:46.912Z,5.86
2023-03-18T00:19:15.286Z,5.88
2023-03-18T00:21:43.564Z,5.89
2023-03-18T00:24:12.422Z,5.91
2023-03-18T00:26:40.737Z,5.95
2023-03-18T00:29:13.649Z,5.98
2023-03-18T00:31:42.162Z,5.98
2023-03-18T00:34:12.416Z,6.00
2023-03-18T00:36:42.366Z,6.03
2023-03-18T00:39:13.273Z,6.04
2023-03-18T00:41:42.346Z,6.10
2023-03-18T00:44:11.414Z,6.14
2023-03-18T00:46:39.307Z,6.17
2023-03-18T00:49:08.876Z,6.17
2023-03-18T00:51:37.827Z,6.12
2023-03-18T00:54:13.697Z,6.11
2023-03-18T00:56:42.121Z,6.11
2023-03-18T00:59:10.468Z,6.09
2023-03-18T01:01:40.016Z,6.06
2023-03-18T01:04:08.741Z,6.05
2023-03-18T01:06:45.354Z,6.04
2023-03-18T01:09:14.458Z,6.05
2023-03-18T01:11:42.753Z,6.03
2023-03-18T01:14:10.788Z,6.02
2023-03-18T01:16:44.865Z,6.03
2023-03-18T01:19:14.135Z,6.02
2023-03-18T01:21:42.302Z,6.04
2023-03-18T01:24:11.478Z,6.08
2023-03-18T01:26:39.581Z,6.08
2023-03-18T01:29:07.868Z,6.06
2023-03-18T01:31:36.370Z,6.08
2023-03-18T01:34:07.880Z,6.11
2023-03-18T01:36:49.902Z,6.14
2023-03-18T01:39:18.152Z,6.16
2023-03-18T01:45:24.926Z,6.14
2023-03-18T01:47:55.890Z,6.12
2023-03-18T01:50:27.473Z,6.09
2023-03-18T01:53:01.954Z,6.07
2023-03-18T01:55:31.837Z,6.06
2023-03-18T01:58:03.069Z,6.02
2023-03-18T02:00:31.661Z,6.03
2023-03-18T02:03:00.943Z,6.06
2023-03-18T02:05:29.734Z,6.06
2023-03-18T02:07:57.894Z,6.07
2023-03-18T02:10:28.944Z,6.11
2023-03-18T02:13:00.702Z,6.16
2023-03-18T02:15:33.958Z,6.18
2023-03-18T02:18:43.773Z,6.16
2023-03-18T02:21:27.807Z,6.09
2023-03-18T02:24:05.875Z,6.07
2023-03-18T02:27:01.216Z,6.06
2023-03-18T02:29:37.638Z,6.10
2023-03-18T02:32:09.020Z,6.08
2023-03-18T02:34:37.690Z,6.05
2023-03-18T02:37:08.145Z,6.06
2023-03-18T02:39:37.189Z,6.10
2023-03-18T02:42:07.831Z,6.14
2023-03-18T02:44:38.387Z,6.19
2023-03-18T02:47:29.498Z,6.23
2023-03-18T02:49:58.155Z,6.26
2023-03-18T02:52:26.750Z,6.28
2023-03-18T02:54:59.270Z,6.27
2023-03-18T02:57:29.779Z,6.29
2023-03-18T03:00:05.844Z,6.28
2023-03-18T03:02:34.482Z,6.26
2023-03-18T03:05:03.408Z,6.24
2023-03-18T03:07:32.107Z,6.25
2023-03-18T03:10:03.033Z,6.25
2023-03-18T03:12:43.190Z,6.24
2023-03-18T03:15:12.038Z,6.24
2023-03-18T03:17:45.170Z,6.23
2023-03-18T03:20:21.636Z,6.17
2023-03-18T03:22:49.725Z,6.14
2023-03-18T03:25:18.507Z,6.15
2023-03-18T03:27:48.527Z,6.19
2023-03-18T03:30:17.332Z,6.24
2023-03-18T03:32:47.740Z,6.28
2023-03-18T03:35:18.915Z,6.30
2023-03-18T03:37:48.152Z,6.29
2023-03-18T03:40:18.587Z,6.27
2023-03-18T03:42:48.204Z,6.25
2023-03-18T03:45:17.293Z,6.18
2023-03-18T03:47:46.806Z,6.13
2023-03-18T03:50:19.392Z,6.13
2023-03-18T03:52:48.246Z,6.08
2023-03-18T03:55:18.286Z,6.03
2023-03-18T03:57:47.693Z,6.00
2023-03-18T04:00:16.896Z,6.00
2023-03-18T04:02:50.064Z,6.01
2023-03-18T04:05:20.815Z,6.03
2023-03-18T04:07:49.336Z,6.07
2023-03-18T04:10:18.738Z,6.11
2023-03-18T04:12:48.844Z,6.13
2023-03-18T04:15:19.870Z,6.13
2023-03-18T04:17:50.393Z,6.13
2023-03-18T04:20:19.516Z,6.08
2023-03-18T04:22:52.058Z,6.02
2023-03-18T04:25:22.269Z,5.97
2023-03-18T04:27:53.569Z,5.91
2023-03-18T04:30:25.368Z,5.91
2023-03-18T04:33:07.021Z,5.92
2023-03-18T04:35:40.239Z,5.91
2023-03-18T04:38:08.457Z,5.91
2023-03-18T04:40:36.442Z,5.92
2023-03-18T04:43:04.634Z,5.93
2023-03-18T04:45:32.755Z,5.91
2023-03-18T04:48:04.604Z,5.89
2023-03-18T04:50:36.474Z,5.91
2023-03-18T04:53:04.806Z,5.93
2023-03-18T04:55:34.591Z,5.90
2023-03-18T04:58:03.844Z,5.88
2023-03-18T05:00:35.166Z,5.89
2023-03-18T05:03:14.837Z,5.89
2023-03-18T05:05:44.101Z,5.84
2023-03-18T05:08:14.496Z,5.80
2023-03-18T05:10:43.072Z,5.81
2023-03-18T05:13:17.672Z,5.78
2023-03-18T05:15:46.241Z,5.77
2023-03-18T05:18:14.180Z,5.78
2023-03-18T05:20:43.544Z,5.81
2023-03-18T05:23:14.172Z,5.84
2023-03-18T05:25:49.346Z,5.87
2023-03-18T05:28:21.457Z,5.91
2023-03-18T05:31:06.032Z,5.93
2023-03-18T05:33:34.822Z,5.93
2023-03-18T05:36:03.175Z,5.92
2023-03-18T05:38:35.844Z,5.95
2023-03-18T05:41:04.546Z,5.99
2023-03-18T05:43:36.999Z,6.04
2023-03-18T05:46:06.041Z,6.09
2023-03-18T05:48:46.253Z,6.12
2023-03-18T05:51:15.439Z,6.13
2023-03-18T05:53:43.579Z,6.13
2023-03-18T05:56:21.263Z,6.13
2023-03-18T05:58:52.406Z,6.17
2023-03-18T06:01:33.145Z,6.19
2023-03-18T06:04:02.167Z,6.20
2023-03-18T06:06:30.882Z,6.22
2023-03-18T06:09:04.259Z,6.22
2023-03-18T06:11:34.157Z,6.19
2023-03-18T06:14:02.264Z,6.17
2023-03-18T06:16:32.889Z,6.15
2023-03-18T06:19:01.189Z,6.09
2023-03-18T06:21:31.683Z,6.02
2023-03-18T06:24:04.324Z,5.95
2023-03-18T06:26:34.173Z,5.94
2023-03-18T06:29:04.173Z,5.96
2023-03-18T06:31:32.816Z,5.97
2023-03-18T06:34:02.062Z,6.00
2023-03-18T06:36:35.245Z,5.98
2023-03-18T06:39:05.127Z,5.95
2023-03-18T06:41:40.130Z,5.94
2023-03-18T06:44:23.126Z,5.96
2023-03-18T06:46:51.804Z,5.98
2023-03-18T06:49:20.270Z,6.00
2023-03-18T06:51:52.677Z,6.00
2023-03-18T06:54:21.187Z,5.95
2023-03-18T06:56:49.708Z,5.84
2023-03-18T06:59:21.740Z,5.70
2023-03-18T07:01:50.950Z,5.57
2023-03-18T07:04:20.843Z,5.54
2023-03-18T07:06:50.204Z,5.56
2023-03-18T07:09:18.982Z,5.56
2023-03-18T07:11:53.696Z,5.57
2023-03-18T07:14:24.934Z,5.57
2023-03-18T07:16:53.267Z,5.60
2023-03-18T07:19:24.585Z,5.61
2023-03-18T07:21:52.587Z,5.63
2023-03-18T07:24:21.595Z,5.64
2023-03-18T07:26:55.865Z,5.65
2023-03-18T07:29:24.938Z,5.64
2023-03-18T07:31:52.982Z,5.64
2023-03-18T07:34:27.405Z,5.62
2023-03-18T07:36:55.846Z,5.58
2023-03-18T07:39:28.915Z,5.44
2023-03-18T07:41:57.116Z,5.38
2023-03-18T07:44:30.284Z,5.39
2023-03-18T07:46:59.585Z,5.43
2023-03-18T07:49:28.041Z,5.44
2023-03-18T07:51:56.729Z,5.35
2023-03-18T07:54:25.413Z,5.32
2023-03-18T07:56:53.837Z,5.29
2023-03-18T07:59:21.980Z,5.24
2023-03-18T08:01:50.271Z,5.23
2023-03-18T08:04:21.589Z,5.26
2023-03-18T08:06:49.895Z,5.33
2023-03-18T08:09:17.887Z,5.39
2023-03-18T08:11:48.692Z,5.43
2023-03-18T08:14:17.480Z,5.40
2023-03-18T08:16:45.835Z,5.31
2023-03-18T08:19:14.573Z,5.22
2023-03-18T08:21:44.236Z,5.13
2023-03-18T08:24:12.278Z,5.08
2023-03-18T08:26:42.033Z,5.03
2023-03-18T08:29:10.821Z,5.01
2023-03-18T08:31:39.534Z,5.01
2023-03-18T08:34:07.714Z,4.97
2023-03-18T08:36:36.264Z,4.95
2023-03-18T08:39:05.595Z,5.00
2023-03-18T08:41:33.630Z,5.12
2023-03-18T08:44:05.812Z,5.24
2023-03-18T08:46:34.592Z,5.28
2023-03-18T08:49:02.973Z,5.23
2023-03-18T08:51:32.759Z,5.19
2023-03-18T08:54:01.184Z,5.14
2023-03-18T08:56:29.364Z,5.11
2023-03-18T08:58:57.712Z,5.07
2023-03-18T09:01:25.637Z,5.06
2023-03-18T09:03:56.209Z,5.01
2023-03-18T09:06:24.387Z,4.86
2023-03-18T09:08:52.458Z,4.71
2023-03-18T09:11:20.789Z,4.61
2023-03-18T09:13:49.502Z,4.54
2023-03-18T09:16:23.121Z,4.45
2023-03-18T09:18:51.103Z,4.41
2023-03-18T09:21:20.501Z,4.45
2023-03-18T09:23:53.010Z,4.56
2023-03-18T09:26:21.224Z,4.69
2023-03-18T09:28:50.555Z,4.85
2023-03-18T09:31:19.424Z,4.99
2023-03-18T09:33:47.836Z,5.11
2023-03-18T09:36:18.647Z,5.20
2023-03-18T09:38:47.604Z,5.24
2023-03-18T09:41:25.864Z,5.19
2023-03-18T09:44:25.761Z,5.08
2023-03-18T09:47:03.616Z,4.96
2023-03-18T09:49:50.146Z,4.93
2023-03-18T09:52:43.815Z,4.97
2023-03-18T09:55:14.618Z,5.05
2023-03-18T09:57:44.396Z,5.09
2023-03-18T10:00:29.182Z,5.10
2023-03-18T10:03:10.051Z,5.10
2023-03-18T10:05:57.057Z,5.17
2023-03-18T10:08:48.742Z,5.24
2023-03-18T10:11:29.206Z,5.32
2023-03-18T10:14:10.095Z,5.40
2023-03-18T10:16:52.062Z,5.48
2023-03-18T10:19:20.706Z,5.55
2023-03-18T10:22:14.456Z,5.60
2023-03-18T10:25:19.461Z,5.68
2023-03-18T10:28:18.397Z,5.73
2023-03-18T10:31:06.336Z,5.72
2023-03-18T10:33:37.684Z,5.71
2023-03-18T10:36:09.778Z,5.70
2023-03-18T10:38:39.861Z,5.65
2023-03-18T10:41:28.697Z,5.56
2023-03-18T10:43:57.993Z,5.42
2023-03-18T10:46:27.182Z,5.29
2023-03-18T10:49:17.653Z,5.22
2023-03-18T10:51:58.186Z,5.19
2023-03-18T10:54:36.792Z,5.22
2023-03-18T10:57:05.080Z,5.33
2023-03-18T10:59:34.837Z,5.44
2023-03-18T11:02:04.942Z,5.52
2023-03-18T11:04:39.005Z,5.50
2023-03-18T11:07:15.047Z,5.46
2023-03-18T11:09:44.675Z,5.48
2023-03-18T11:12:27.095Z,5.52
2023-03-18T11:14:56.448Z,5.55
2023-03-18T11:17:29.355Z,5.59
2023-03-18T11:20:08.075Z,5.65
2023-03-18T11:22:36.832Z,5.69
2023-03-18T11:25:16.831Z,5.72
2023-03-18T11:27:48.328Z,5.71
2023-03-18T11:30:38.344Z,5.58
2023-03-18T11:33:12.522Z,5.44
2023-03-18T11:36:01.184Z,5.37
2023-03-18T11:38:33.996Z,5.30
2023-03-18T11:41:22.516Z,5.21
2023-03-18T11:44:02.387Z,5.12
2023-03-18T11:46:36.349Z,5.14
2023-03-18T11:49:04.726Z,5.23
2023-03-18T11:51:45.858Z,5.32
2023-03-18T11:54:19.890Z,5.43
2023-03-18T11:57:03.091Z,5.54
2023-03-18T11:59:39.988Z,5.61
2023-03-18T12:02:29.479Z,5.60
2023-03-18T12:05:33.548Z,5.40
2023-03-18T12:08:12.009Z,5.28
2023-03-18T12:10:41.638Z,5.35
2023-03-18T12:13:15.988Z,5.39
2023-03-18T12:15:58.949Z,5.44
2023-03-18T12:19:02.315Z,5.46
2023-03-18T12:21:48.972Z,5.47
2023-03-18T12:24:40.138Z,5.51
2023-03-18T12:27:45.491Z,5.54
2023-03-18T12:30:32.787Z,5.56
2023-03-18T12:33:10.553Z,5.61
2023-03-18T12:35:42.533Z,5.65
2023-03-18T12:38:31.470Z,5.67
2023-03-18T12:41:09.317Z,5.63
2023-03-18T12:43:43.868Z,5.67
2023-03-18T12:46:38.068Z,5.72
2023-03-18T12:49:16.575Z,5.71
2023-03-18T12:51:49.161Z,5.69
2023-03-18T12:54:23.784Z,5.70
2023-03-18T12:56:56.043Z,5.76
2023-03-18T12:59:37.571Z,5.78
2023-03-18T13:02:21.087Z,5.81
2023-03-18T13:05:00.114Z,5.84
2023-03-18T13:07:46.084Z,5.89
2023-03-18T13:10:23.372Z,5.98
2023-03-18T13:12:53.374Z,6.05
2023-03-18T13:15:27.611Z,6.09
2023-03-18T13:18:35.719Z,6.16
2023-03-18T13:21:06.667Z,6.20
2023-03-18T13:23:51.431Z,6.14
2023-03-18T13:26:29.095Z,6.14
2023-03-18T13:29:04.482Z,6.14
2023-03-18T13:31:57.851Z,6.08
2023-03-18T13:34:48.213Z,6.05
2023-03-18T13:37:39.427Z,6.04
2023-03-18T13:40:29.516Z,6.00
2023-03-18T13:42:59.213Z,5.94
2023-03-18T13:45:30.561Z,5.93
2023-03-18T13:48:06.105Z,5.96
2023-03-18T13:50:37.854Z,6.01
2023-03-18T13:53:18.353Z,6.07
2023-03-18T13:55:48.069Z,6.16
2023-03-18T13:58:19.610Z,6.23
2023-03-18T14:00:55.195Z,6.25
2023-03-18T14:03:30.159Z,6.27
2023-03-18T14:06:09.253Z,6.26
2023-03-18T14:08:38.922Z,6.19
2023-03-18T14:11:28.509Z,6.16
2023-03-18T14:18:27.733Z,6.05
2023-03-18T14:20:59.909Z,5.97
2023-03-18T14:23:40.001Z,6.00
2023-03-18T14:26:23.070Z,6.05
2023-03-18T14:28:56.675Z,6.11
2023-03-18T14:31:44.292Z,6.15
2023-03-18T14:34:18.946Z,6.21
2023-03-18T14:36:52.945Z,6.24
2023-03-18T14:39:42.735Z,6.25
2023-03-18T14:42:23.359Z,6.26
2023-03-18T14:44:55.046Z,6.29
2023-03-18T14:47:39.683Z,6.27
2023-03-18T14:50:20.349Z,6.23
2023-03-18T14:52:55.907Z,6.10
2023-03-18T14:55:27.870Z,6.08
2023-03-18T14:57:56.730Z,6.09
2023-03-18T15:00:26.155Z,6.11
2023-03-18T15:03:07.059Z,6.14
2023-03-18T15:05:40.206Z,6.13
2023-03-18T15:08:19.199Z,6.09
2023-03-18T15:10:49.571Z,6.00
2023-03-18T15:13:23.066Z,5.92
2023-03-18T15:15:55.012Z,5.90
2023-03-18T15:18:30.102Z,5.73
2023-03-18T15:21:17.481Z,5.47
2023-03-18T15:23:48.365Z,5.31
2023-03-18T15:26:19.602Z,5.24
2023-03-18T15:28:48.564Z,5.28
2023-03-18T15:31:29.849Z,5.34
2023-03-18T15:34:16.146Z,5.41
2023-03-18T15:37:05.583Z,5.43
2023-03-18T15:39:38.855Z,5.39
2023-03-18T15:42:19.088Z,5.38
2023-03-18T15:44:52.826Z,5.43
2023-03-18T15:47:29.778Z,5.50
2023-03-18T15:50:01.571Z,5.49
2023-03-18T15:52:33.506Z,5.42
2023-03-18T15:55:02.608Z,5.35
2023-03-18T15:57:35.144Z,5.30
2023-03-18T16:00:06.445Z,5.25
2023-03-18T16:02:40.268Z,5.25
2023-03-18T16:05:26.292Z,5.27
2023-03-18T16:07:54.915Z,5.21
2023-03-18T16:10:25.824Z,5.17
2023-03-18T16:12:55.300Z,5.19
2023-03-18T16:15:24.337Z,5.22
2023-03-18T16:17:54.968Z,5.22
2023-03-18T16:20:28.954Z,5.13
2023-03-18T16:22:57.988Z,5.02
2023-03-18T16:25:26.251Z,4.94
2023-03-18T16:27:55.802Z,4.94
2023-03-18T16:30:26.291Z,4.96
2023-03-18T16:32:57.308Z,5.01
2023-03-18T16:35:27.674Z,5.02
2023-03-18T16:37:55.631Z,5.01
2023-03-18T16:40:29.484Z,5.04
2023-03-18T16:43:02.289Z,5.05
2023-03-18T16:45:32.385Z,5.08
2023-03-18T16:48:06.839Z,5.15
2023-03-18T16:50:39.008Z,5.25
2023-03-18T16:53:22.737Z,5.34
2023-03-18T16:55:51.911Z,5.38
2023-03-18T16:58:26.666Z,5.37
2023-03-18T17:00:55.382Z,5.37
2023-03-18T17:03:24.580Z,5.32
2023-03-18T17:05:59.356Z,5.30
2023-03-18T17:08:29.524Z,5.30
2023-03-18T17:10:58.875Z,5.33
2023-03-18T17:13:33.070Z,5.38
2023-03-18T17:16:02.030Z,5.42
2023-03-18T17:18:30.254Z,5.43
2023-03-18T17:21:06.637Z,5.43
2023-03-18T17:23:35.651Z,5.40
2023-03-18T17:26:04.713Z,5.41
2023-03-18T17:28:35.927Z,5.41
2023-03-18T17:31:04.477Z,5.37
2023-03-18T17:33:35.676Z,5.32
2023-03-18T17:36:04.611Z,5.28
2023-03-18T17:38:32.771Z,5.21
2023-03-18T17:41:01.993Z,5.14
2023-03-18T17:43:36.313Z,5.03
2023-03-18T17:46:06.361Z,4.94
2023-03-18T17:48:37.455Z,4.88
2023-03-18T17:51:17.030Z,4.82
2023-03-18T17:53:46.720Z,4.78
2023-03-18T17:56:16.627Z,4.73
2023-03-18T17:58:51.624Z,4.73
2023-03-18T18:01:27.562Z,4.77
2023-03-18T18:03:56.882Z,4.81
2023-03-18T18:06:29.232Z,4.84
2023-03-18T18:09:00.667Z,4.88
2023-03-18T18:11:38.057Z,4.88
2023-03-18T18:14:23.605Z,4.81
2023-03-18T18:16:53.789Z,4.77
2023-03-18T18:19:22.787Z,4.72
2023-03-18T18:21:51.706Z,4.69
2023-03-18T18:24:24.638Z,4.67
2023-03-18T18:26:53.160Z,4.71
2023-03-18T18:29:22.981Z,4.75
2023-03-18T18:31:51.546Z,4.74
2023-03-18T18:34:21.319Z,4.75
2023-03-18T18:36:50.808Z,4.79
2023-03-18T18:39:19.702Z,4.81
2023-03-18T18:41:48.507Z,4.82
2023-03-18T18:44:19.098Z,4.84
2023-03-18T18:46:47.526Z,4.85
2023-03-18T18:49:22.989Z,4.79
2023-03-18T18:51:53.508Z,4.77
2023-03-18T18:54:22.841Z,4.75
2023-03-18T18:56:52.979Z,4.76
2023-03-18T18:59:23.396Z,4.76
2023-03-18T19:01:52.179Z,4.78
2023-03-18T19:04:22.210Z,4.81
2023-03-18T19:06:51.797Z,4.85
2023-03-18T19:09:24.502Z,4.88
2023-03-18T19:11:53.356Z,4.91
2023-03-18T19:14:25.973Z,4.94
2023-03-18T19:16:56.354Z,4.94
2023-03-18T19:19:25.917Z,4.94
2023-03-18T19:21:55.182Z,4.89
2023-03-18T19:24:30.584Z,4.87
2023-03-18T19:27:23.983Z,4.86
2023-03-18T19:30:01.794Z,4.84
2023-03-18T19:32:31.256Z,4.82
2023-03-18T19:35:00.672Z,4.79
2023-03-18T19:37:32.386Z,4.79
2023-03-18T19:40:00.808Z,4.82
2023-03-18T19:42:29.701Z,4.82
2023-03-18T19:44:57.908Z,4.85
2023-03-18T19:47:28.740Z,4.84
2023-03-18T19:49:57.448Z,4.82
2023-03-18T19:52:28.149Z,4.81
2023-03-18T19:54:56.651Z,4.80
2023-03-18T19:57:29.295Z,4.79
2023-03-18T20:00:01.350Z,4.77
2023-03-18T20:02:33.913Z,4.79
2023-03-18T20:05:04.234Z,4.81
2023-03-18T20:07:33.507Z,4.81
2023-03-18T20:10:01.703Z,4.84
2023-03-18T20:12:47.353Z,4.87
2023-03-18T20:15:25.185Z,4.91
2023-03-18T20:18:48.647Z,4.91
2023-03-18T20:21:34.701Z,4.89
2023-03-18T20:24:05.750Z,4.90
2023-03-18T20:26:37.574Z,4.97
2023-03-18T20:29:19.505Z,4.96
2023-03-18T20:31:47.634Z,4.95
2023-03-18T20:34:15.827Z,4.90
2023-03-18T20:36:43.833Z,4.88
2023-03-18T20:39:20.273Z,4.85
2023-03-18T20:41:48.644Z,4.79
2023-03-18T20:44:16.842Z,4.81
2023-03-18T20:46:44.941Z,4.91
2023-03-18T20:49:14.201Z,4.99
2023-03-18T20:51:42.292Z,5.07
2023-03-18T20:54:23.358Z,5.16
2023-03-18T20:56:51.802Z,5.24
2023-03-18T20:59:19.721Z,5.30
2023-03-18T21:01:48.162Z,5.34
2023-03-18T21:04:19.514Z,5.39
2023-03-18T21:06:47.692Z,5.44
2023-03-18T21:09:15.871Z,5.49
2023-03-18T21:11:43.941Z,5.52
2023-03-18T21:14:15.992Z,5.52
2023-03-18T21:16:44.457Z,5.55
2023-03-18T21:23:57.572Z,5.61
2023-03-18T21:27:19.660Z,5.61
2023-03-18T21:29:51.315Z,5.63
2023-03-18T21:32:31.666Z,5.66
2023-03-18T21:35:00.084Z,5.68
2023-03-18T21:37:28.254Z,5.69
2023-03-18T21:39:56.673Z,5.73
2023-03-18T21:42:29.387Z,5.77
2023-03-18T21:44:57.548Z,5.79
2023-03-18T21:47:27.017Z,5.80
2023-03-18T21:49:56.819Z,5.83
2023-03-18T21:52:36.135Z,5.83
2023-03-18T21:55:06.188Z,5.85
2023-03-18T21:57:37.214Z,5.84
2023-03-18T22:00:05.880Z,5.84
2023-03-18T22:02:38.687Z,5.82
2023-03-18T22:05:11.668Z,5.78
2023-03-18T22:07:46.176Z,5.78
2023-03-18T22:10:18.967Z,5.77
2023-03-18T22:12:47.100Z,5.72
2023-03-18T22:15:29.178Z,5.71
2023-03-18T22:17:58.043Z,5.71
2023-03-18T22:20:26.538Z,5.68
2023-03-18T22:22:57.792Z,5.67
2023-03-18T22:25:29.792Z,5.66
2023-03-18T22:27:58.414Z,5.65
2023-03-18T22:30:26.973Z,5.65
2023-03-18T22:32:56.307Z,5.64
2023-03-18T22:35:26.582Z,5.64
2023-03-18T22:37:54.941Z,5.66
2023-03-18T22:40:24.543Z,5.65
2023-03-18T22:42:55.605Z,5.62
2023-03-18T22:45:31.316Z,5.60
2023-03-18T22:48:01.573Z,5.60
2023-03-18T22:50:31.688Z,5.62
2023-03-18T22:53:04.665Z,5.66
2023-03-18T22:55:35.758Z,5.66
2023-03-18T22:58:03.900Z,5.66
2023-03-18T23:00:36.830Z,5.69
2023-03-18T23:03:19.916Z,5.70
2023-03-18T23:05:51.893Z,5.72
2023-03-18T23:08:21.310Z,5.70
2023-03-18T23:10:51.207Z,5.66
2023-03-18T23:13:29.762Z,5.63
2023-03-18T23:16:02.326Z,5.64
2023-03-18T23:18:30.945Z,5.66
2023-03-18T23:21:02.349Z,5.68
2023-03-18T23:23:31.729Z,5.71
2023-03-18T23:25:59.856Z,5.72
2023-03-18T23:28:27.793Z,5.73
2023-03-18T23:30:56.496Z,5.75
2023-03-18T23:33:24.728Z,5.77
2023-03-18T23:35:53.263Z,5.78
2023-03-18T23:38:21.321Z,5.79
2023-03-18T23:40:54.068Z,5.78
2023-03-18T23:43:28.303Z,5.78
2023-03-18T23:45:57.193Z,5.77
2023-03-18T23:48:25.753Z,5.72
2023-03-18T23:50:54.027Z,5.67
2023-03-18T23:53:23.815Z,5.63
2023-03-18T23:55:51.926Z,5.60
2023-03-18T23:58:20.545Z,5.54
